sensor_id;sensor_type;location;lat;lon;timestamp;temperature;humidity
3919;DHT22;1974;48.670;8.994;2023-04-09T00:02:12;6.60;99.90
3919;DHT22;1974;48.670;8.994;2023-04-09T00:04:39;6.60;99.90
3919;DHT22;1974;48.670;8.994;2023-04-09T00:07:05;6.60;99.90
3919;DHT22;1974;48.670;8.994;2023-04-09T00:09:32;6.60;99.90
3919;DHT22;1974;48.670;8.994;2023-04-09T00:11:59;6.60;99.90
3919;DHT22;1974;48.670;8.994;2023-04-09T00:14:28;6.60;99.90
3919;DHT22;1974;48.670;8.994;2023-04-09T00:16:54;6.60;99.90
3919;DHT22;1974;48.670;8.994;2023-04-09T00:19:21;6.60;99.90
3919;DHT22;1974;48.670;8.994;2023-04-09T00:21:48;6.70;99.90
3919;DHT22;1974;48.670;8.994;2023-04-09T00:24:15;6.60;99.90
3919;DHT22;1974;48.670;8.994;2023-04-09T00:26:41;6.60;99.90
3919;DHT22;1974;48.670;8.994;2023-04-09T00:29:08;6.60;99.90
3919;DHT22;1974;48.670;8.994;2023-04-09T00:31:36;6.60;99.90
3919;DHT22;1974;48.670;8.994;2023-04-09T00:34:03;6.60;99.90
3919;DHT22;1974;48.670;8.994;2023-04-09T00:36:30;6.60;99.90
3919;DHT22;1974;48.670;8.994;2023-04-09T00:38:56;6.60;99.90
3919;DHT22;1974;48.670;8.994;2023-04-09T00:41:23;6.60;99.90
3919;DHT22;1974;48.670;8.994;2023-04-09T00:43:50;6.60;99.90
3919;DHT22;1974;48.670;8.994;2023-04-09T00:46:17;6.60;99.90
3919;DHT22;1974;48.670;8.994;2023-04-09T00:48:45;6.60;99.90
3919;DHT22;1974;48.670;8.994;2023-04-09T00:51:12;6.70;99.90
3919;DHT22;1974;48.670;8.994;2023-04-09T00:53:38;6.70;99.90
3919;DHT22;1974;48.670;8.994;2023-04-09T00:56:06;6.70;99.90
3919;DHT22;1974;48.670;8.994;2023-04-09T00:58:33;6.70;99.90
3919;DHT22;1974;48.670;8.994;2023-04-09T01:01:00;6.70;99.90
3919;DHT22;1974;48.670;8.994;2023-04-09T01:03:27;6.70;99.90
3919;DHT22;1974;48.670;8.994;2023-04-09T01:06:02;6.70;99.90
3919;DHT22;1974;48.670;8.994;2023-04-09T01:08:37;6.70;99.90
3919;DHT22;1974;48.670;8.994;2023-04-09T01:11:11;6.70;99.90
3919;DHT22;1974;48.670;8.994;2023-04-09T01:13:47;6.70;99.90
3919;DHT22;1974;48.670;8.994;2023-04-09T01:16:15;6.70;99.90
3919;DHT22;1974;48.670;8.994;2023-04-09T01:18:49;6.70;99.90
3919;DHT22;1974;48.670;8.994;2023-04-09T01:21:22;6.70;99.90
3919;DHT22;1974;48.670;8.994;2023-04-09T01:23:57;6.70;99.90
3919;DHT22;1974;48.670;8.994;2023-04-09T01:26:37;6.60;99.90
3919;DHT22;1974;48.670;8.994;2023-04-09T01:29:08;6.60;99.90
3919;DHT22;1974;48.670;8.994;2023-04-09T01:31:37;6.60;99.90
3919;DHT22;1974;48.670;8.994;2023-04-09T01:34:05;6.70;99.90
3919;DHT22;1974;48.670;8.994;2023-04-09T01:36:34;6.60;99.90
3919;DHT22;1974;48.670;8.994;2023-04-09T01:39:02;6.60;99.90
3919;DHT22;1974;48.670;8.994;2023-04-09T01:41:31;6.60;99.90
3919;DHT22;1974;48.670;8.994;2023-04-09T01:43:59;6.60;99.90
3919;DHT22;1974;48.670;8.994;2023-04-09T01:46:28;6.60;99.90
3919;DHT22;1974;48.670;8.994;2023-04-09T01:48:56;6.70;99.90
3919;DHT22;1974;48.670;8.994;2023-04-09T01:51:24;6.70;99.90
3919;DHT22;1974;48.670;8.994;2023-04-09T01:53:51;6.70;99.90
3919;DHT22;1974;48.670;8.994;2023-04-09T01:56:18;6.70;99.90
3919;DHT22;1974;48.670;8.994;2023-04-09T01:58:45;6.70;99.90
3919;DHT22;1974;48.670;8.994;2023-04-09T02:01:21;6.70;99.90
3919;DHT22;1974;48.670;8.994;2023-04-09T02:03:51;6.70;99.90
3919;DHT22;1974;48.670;8.994;2023-04-09T02:06:24;6.70;99.90
3919;DHT22;1974;48.670;8.994;2023-04-09T02:08:54;6.70;99.90
3919;DHT22;1974;48.670;8.994;2023-04-09T02:11:24;6.80;99.90
3919;DHT22;1974;48.670;8.994;2023-04-09T02:13:53;6.70;99.90
3919;DHT22;1974;48.670;8.994;2023-04-09T02:16:21;6.70;99.90
3919;DHT22;1974;48.670;8.994;2023-04-09T02:18:53;6.70;99.90
3919;DHT22;1974;48.670;8.994;2023-04-09T02:21:21;6.60;99.90
3919;DHT22;1974;48.670;8.994;2023-04-09T02:23:47;6.60;99.90
3919;DHT22;1974;48.670;8.994;2023-04-09T02:26:14;6.60;99.90
3919;DHT22;1974;48.670;8.994;2023-04-09T02:28:41;6.60;99.90
3919;DHT22;1974;48.670;8.994;2023-04-09T02:31:08;6.60;99.90
3919;DHT22;1974;48.670;8.994;2023-04-09T02:33:35;6.60;99.90
3919;DHT22;1974;48.670;8.994;2023-04-09T02:36:04;6.60;99.90
3919;DHT22;1974;48.670;8.994;2023-04-09T02:38:31;6.50;99.90
3919;DHT22;1974;48.670;8.994;2023-04-09T02:40:57;6.50;99.90
3919;DHT22;1974;48.670;8.994;2023-04-09T02:43:24;6.50;99.90
3919;DHT22;1974;48.670;8.994;2023-04-09T02:45:51;6.50;99.90
3919;DHT22;1974;48.670;8.994;2023-04-09T02:48:18;6.60;99.90
3919;DHT22;1974;48.670;8.994;2023-04-09T02:50:44;6.50;99.90
3919;DHT22;1974;48.670;8.994;2023-04-09T02:53:12;6.50;99.90
3919;DHT22;1974;48.670;8.994;2023-04-09T02:55:39;6.50;99.90
3919;DHT22;1974;48.670;8.994;2023-04-09T02:58:06;6.50;99.90
3919;DHT22;1974;48.670;8.994;2023-04-09T03:00:32;6.50;99.90
3919;DHT22;1974;48.670;8.994;2023-04-09T03:02:59;6.50;99.90
3919;DHT22;1974;48.670;8.994;2023-04-09T03:05:26;6.50;99.90
3919;DHT22;1974;48.670;8.994;2023-04-09T03:07:53;6.50;99.90
3919;DHT22;1974;48.670;8.994;2023-04-09T03:10:21;6.50;99.90
3919;DHT22;1974;48.670;8.994;2023-04-09T03:12:48;6.50;99.90
3919;DHT22;1974;48.670;8.994;2023-04-09T03:15:15;6.50;99.90
3919;DHT22;1974;48.670;8.994;2023-04-09T03:17:42;6.50;99.90
3919;DHT22;1974;48.670;8.994;2023-04-09T03:20:09;6.40;99.90
3919;DHT22;1974;48.670;8.994;2023-04-09T03:22:36;6.40;99.90
3919;DHT22;1974;48.670;8.994;2023-04-09T03:25:03;6.40;99.90
3919;DHT22;1974;48.670;8.994;2023-04-09T03:27:32;6.40;99.90
3919;DHT22;1974;48.670;8.994;2023-04-09T03:29:59;6.40;99.90
3919;DHT22;1974;48.670;8.994;2023-04-09T03:32:26;6.40;99.90
3919;DHT22;1974;48.670;8.994;2023-04-09T03:34:52;6.40;99.90
3919;DHT22;1974;48.670;8.994;2023-04-09T03:37:19;6.30;99.90
3919;DHT22;1974;48.670;8.994;2023-04-09T03:39:46;6.40;99.90
3919;DHT22;1974;48.670;8.994;2023-04-09T03:42:12;6.40;99.90
3919;DHT22;1974;48.670;8.994;2023-04-09T03:44:40;6.40;99.90
3919;DHT22;1974;48.670;8.994;2023-04-09T03:47:07;6.30;99.90
3919;DHT22;1974;48.670;8.994;2023-04-09T03:49:34;6.20;99.90
3919;DHT22;1974;48.670;8.994;2023-04-09T03:52:01;6.20;99.90
3919;DHT22;1974;48.670;8.994;2023-04-09T03:54:28;6.20;99.90
3919;DHT22;1974;48.670;8.994;2023-04-09T03:56:55;6.20;99.90
3919;DHT22;1974;48.670;8.994;2023-04-09T03:59:22;6.20;99.90
3919;DHT22;1974;48.670;8.994;2023-04-09T04:01:50;6.20;99.90
3919;DHT22;1974;48.670;8.994;2023-04-09T04:04:16;6.20;99.90
3919;DHT22;1974;48.670;8.994;2023-04-09T04:06:43;6.20;99.90
3919;DHT22;1974;48.670;8.994;2023-04-09T04:09:10;6.20;99.90
3919;DHT22;1974;48.670;8.994;2023-04-09T04:11:36;6.20;99.90
3919;DHT22;1974;48.670;8.994;2023-04-09T04:14:03;6.20;99.90
3919;DHT22;1974;48.670;8.994;2023-04-09T04:16:30;6.20;99.90
3919;DHT22;1974;48.670;8.994;2023-04-09T04:18:58;6.20;99.90
3919;DHT22;1974;48.670;8.994;2023-04-09T04:21:25;6.20;99.90
3919;DHT22;1974;48.670;8.994;2023-04-09T04:23:51;6.20;99.90
3919;DHT22;1974;48.670;8.994;2023-04-09T04:26:18;6.20;99.90
3919;DHT22;1974;48.670;8.994;2023-04-09T04:28:45;6.30;99.90
3919;DHT22;1974;48.670;8.994;2023-04-09T04:31:12;6.30;99.90
3919;DHT22;1974;48.670;8.994;2023-04-09T04:33:40;6.30;99.90
3919;DHT22;1974;48.670;8.994;2023-04-09T04:36:10;6.40;99.90
3919;DHT22;1974;48.670;8.994;2023-04-09T04:38:38;6.40;99.90
3919;DHT22;1974;48.670;8.994;2023-04-09T04:41:05;6.30;99.90
3919;DHT22;1974;48.670;8.994;2023-04-09T04:43:32;6.30;99.90
3919;DHT22;1974;48.670;8.994;2023-04-09T04:45:59;6.30;99.90
3919;DHT22;1974;48.670;8.994;2023-04-09T04:48:27;6.30;99.90
3919;DHT22;1974;48.670;8.994;2023-04-09T04:50:54;6.30;99.90
3919;DHT22;1974;48.670;8.994;2023-04-09T04:53:22;6.30;99.90
3919;DHT22;1974;48.670;8.994;2023-04-09T04:55:49;6.30;99.90
3919;DHT22;1974;48.670;8.994;2023-04-09T04:58:16;6.30;99.90
3919;DHT22;1974;48.670;8.994;2023-04-09T05:00:43;6.40;99.90
3919;DHT22;1974;48.670;8.994;2023-04-09T05:03:10;6.30;99.90
3919;DHT22;1974;48.670;8.994;2023-04-09T05:05:37;6.30;99.90
3919;DHT22;1974;48.670;8.994;2023-04-09T05:08:04;6.40;99.90
3919;DHT22;1974;48.670;8.994;2023-04-09T05:10:32;6.40;99.90
3919;DHT22;1974;48.670;8.994;2023-04-09T05:12:59;6.40;99.90
3919;DHT22;1974;48.670;8.994;2023-04-09T05:15:26;6.40;99.90
3919;DHT22;1974;48.670;8.994;2023-04-09T05:17:52;6.40;99.90
3919;DHT22;1974;48.670;8.994;2023-04-09T05:20:19;6.50;99.90
3919;DHT22;1974;48.670;8.994;2023-04-09T05:22:46;6.50;99.90
3919;DHT22;1974;48.670;8.994;2023-04-09T05:25:12;6.50;99.90
3919;DHT22;1974;48.670;8.994;2023-04-09T05:27:42;6.50;99.90
3919;DHT22;1974;48.670;8.994;2023-04-09T05:30:09;6.50;99.90
3919;DHT22;1974;48.670;8.994;2023-04-09T05:32:36;6.50;99.90
3919;DHT22;1974;48.670;8.994;2023-04-09T05:35:03;6.50;99.90
3919;DHT22;1974;48.670;8.994;2023-04-09T05:37:30;6.50;99.90
3919;DHT22;1974;48.670;8.994;2023-04-09T05:39:57;6.60;99.90
3919;DHT22;1974;48.670;8.994;2023-04-09T05:42:23;6.60;99.90
3919;DHT22;1974;48.670;8.994;2023-04-09T05:44:51;6.60;99.90
3919;DHT22;1974;48.670;8.994;2023-04-09T05:47:18;6.70;99.90
3919;DHT22;1974;48.670;8.994;2023-04-09T05:49:45;6.80;99.90
3919;DHT22;1974;48.670;8.994;2023-04-09T05:52:13;6.90;99.90
3919;DHT22;1974;48.670;8.994;2023-04-09T05:54:40;7.00;99.90
3919;DHT22;1974;48.670;8.994;2023-04-09T05:57:06;7.10;99.90
3919;DHT22;1974;48.670;8.994;2023-04-09T05:59:33;7.10;99.90
3919;DHT22;1974;48.670;8.994;2023-04-09T06:02:01;7.20;99.90
3919;DHT22;1974;48.670;8.994;2023-04-09T06:04:28;7.30;99.90
3919;DHT22;1974;48.670;8.994;2023-04-09T06:06:55;7.40;99.90
3919;DHT22;1974;48.670;8.994;2023-04-09T06:09:24;7.50;99.90
3919;DHT22;1974;48.670;8.994;2023-04-09T06:11:51;7.60;99.90
3919;DHT22;1974;48.670;8.994;2023-04-09T06:14:17;7.70;99.90
3919;DHT22;1974;48.670;8.994;2023-04-09T06:16:44;7.80;99.90
3919;DHT22;1974;48.670;8.994;2023-04-09T06:19:14;7.90;99.90
3919;DHT22;1974;48.670;8.994;2023-04-09T06:21:41;8.10;99.90
3919;DHT22;1974;48.670;8.994;2023-04-09T06:24:08;8.30;99.90
3919;DHT22;1974;48.670;8.994;2023-04-09T06:26:34;8.50;99.90
3919;DHT22;1974;48.670;8.994;2023-04-09T06:29:01;8.80;99.90
3919;DHT22;1974;48.670;8.994;2023-04-09T06:31:29;9.20;99.90
3919;DHT22;1974;48.670;8.994;2023-04-09T06:33:55;9.80;99.90
3919;DHT22;1974;48.670;8.994;2023-04-09T06:36:23;10.30;99.90
3919;DHT22;1974;48.670;8.994;2023-04-09T06:38:51;10.60;99.90
3919;DHT22;1974;48.670;8.994;2023-04-09T06:41:20;10.80;99.90
3919;DHT22;1974;48.670;8.994;2023-04-09T06:43:46;10.90;99.90
3919;DHT22;1974;48.670;8.994;2023-04-09T06:46:13;11.10;99.90
3919;DHT22;1974;48.670;8.994;2023-04-09T06:48:42;11.20;99.90
3919;DHT22;1974;48.670;8.994;2023-04-09T06:51:09;11.20;99.90
3919;DHT22;1974;48.670;8.994;2023-04-09T06:53:38;11.00;99.90
3919;DHT22;1974;48.670;8.994;2023-04-09T06:56:05;10.90;99.90
3919;DHT22;1974;48.670;8.994;2023-04-09T06:58:32;10.80;99.90
3919;DHT22;1974;48.670;8.994;2023-04-09T07:00:59;10.80;99.90
3919;DHT22;1974;48.670;8.994;2023-04-09T07:03:26;11.20;99.90
3919;DHT22;1974;48.670;8.994;2023-04-09T07:05:53;11.80;99.90
3919;DHT22;1974;48.670;8.994;2023-04-09T07:08:19;11.90;99.90
3919;DHT22;1974;48.670;8.994;2023-04-09T07:10:49;11.80;99.90
3919;DHT22;1974;48.670;8.994;2023-04-09T07:13:15;11.50;99.90
3919;DHT22;1974;48.670;8.994;2023-04-09T07:15:42;11.30;99.90
3919;DHT22;1974;48.670;8.994;2023-04-09T07:18:09;11.10;99.90
3919;DHT22;1974;48.670;8.994;2023-04-09T07:20:36;11.00;99.90
3919;DHT22;1974;48.670;8.994;2023-04-09T07:23:03;10.90;99.90
3919;DHT22;1974;48.670;8.994;2023-04-09T07:25:30;10.80;99.90
3919;DHT22;1974;48.670;8.994;2023-04-09T07:27:58;10.60;99.90
3919;DHT22;1974;48.670;8.994;2023-04-09T07:30:24;10.30;99.90
3919;DHT22;1974;48.670;8.994;2023-04-09T07:32:51;10.30;99.90
3919;DHT22;1974;48.670;8.994;2023-04-09T07:35:18;10.20;99.90
3919;DHT22;1974;48.670;8.994;2023-04-09T07:37:45;10.20;99.90
3919;DHT22;1974;48.670;8.994;2023-04-09T07:40:12;10.40;99.90
3919;DHT22;1974;48.670;8.994;2023-04-09T07:42:39;11.00;99.90
3919;DHT22;1974;48.670;8.994;2023-04-09T07:45:08;12.50;99.90
3919;DHT22;1974;48.670;8.994;2023-04-09T07:47:35;13.50;99.90
3919;DHT22;1974;48.670;8.994;2023-04-09T07:50:02;13.50;99.90
3919;DHT22;1974;48.670;8.994;2023-04-09T07:52:29;13.10;99.90
3919;DHT22;1974;48.670;8.994;2023-04-09T07:54:55;12.60;99.90
3919;DHT22;1974;48.670;8.994;2023-04-09T07:57:22;12.10;99.90
3919;DHT22;1974;48.670;8.994;2023-04-09T07:59:49;12.10;99.90
3919;DHT22;1974;48.670;8.994;2023-04-09T08:02:17;12.70;99.90
3919;DHT22;1974;48.670;8.994;2023-04-09T08:04:44;13.30;99.90
3919;DHT22;1974;48.670;8.994;2023-04-09T08:07:11;13.70;99.90
3919;DHT22;1974;48.670;8.994;2023-04-09T08:09:37;14.20;99.90
3919;DHT22;1974;48.670;8.994;2023-04-09T08:12:04;14.10;99.90
3919;DHT22;1974;48.670;8.994;2023-04-09T08:14:31;14.20;99.90
3919;DHT22;1974;48.670;8.994;2023-04-09T08:16:58;14.20;99.90
3919;DHT22;1974;48.670;8.994;2023-04-09T08:19:27;14.20;99.90
3919;DHT22;1974;48.670;8.994;2023-04-09T08:21:53;14.10;98.40
3919;DHT22;1974;48.670;8.994;2023-04-09T08:24:21;13.80;98.10
3919;DHT22;1974;48.670;8.994;2023-04-09T08:26:47;13.70;99.00
3919;DHT22;1974;48.670;8.994;2023-04-09T08:29:14;13.60;99.90
3919;DHT22;1974;48.670;8.994;2023-04-09T08:31:41;13.60;99.00
3919;DHT22;1974;48.670;8.994;2023-04-09T08:34:08;13.30;98.60
3919;DHT22;1974;48.670;8.994;2023-04-09T08:36:36;13.10;98.40
3919;DHT22;1974;48.670;8.994;2023-04-09T08:39:03;12.70;98.20
3919;DHT22;1974;48.670;8.994;2023-04-09T08:41:30;12.50;99.90
3919;DHT22;1974;48.670;8.994;2023-04-09T08:43:57;12.30;99.90
3919;DHT22;1974;48.670;8.994;2023-04-09T08:46:25;12.20;99.90
3919;DHT22;1974;48.670;8.994;2023-04-09T08:48:52;12.30;99.90
3919;DHT22;1974;48.670;8.994;2023-04-09T08:51:19;12.60;95.20
3919;DHT22;1974;48.670;8.994;2023-04-09T08:53:50;13.40;94.00
3919;DHT22;1974;48.670;8.994;2023-04-09T08:56:18;14.30;90.40
3919;DHT22;1974;48.670;8.994;2023-04-09T08:58:48;14.50;90.00
3919;DHT22;1974;48.670;8.994;2023-04-09T09:01:21;14.70;90.10
3919;DHT22;1974;48.670;8.994;2023-04-09T09:03:57;14.20;90.20
3919;DHT22;1974;48.670;8.994;2023-04-09T09:06:26;13.50;91.40
3919;DHT22;1974;48.670;8.994;2023-04-09T09:09:06;13.70;92.20
3919;DHT22;1974;48.670;8.994;2023-04-09T09:11:34;13.80;92.20
3919;DHT22;1974;48.670;8.994;2023-04-09T09:14:02;13.40;89.60
3919;DHT22;1974;48.670;8.994;2023-04-09T09:16:29;12.80;92.20
3919;DHT22;1974;48.670;8.994;2023-04-09T09:18:57;12.50;93.70
3919;DHT22;1974;48.670;8.994;2023-04-09T09:21:25;12.40;93.90
3919;DHT22;1974;48.670;8.994;2023-04-09T09:23:53;12.40;92.80
3919;DHT22;1974;48.670;8.994;2023-04-09T09:26:23;12.30;91.60
3919;DHT22;1974;48.670;8.994;2023-04-09T09:28:51;12.30;92.10
3919;DHT22;1974;48.670;8.994;2023-04-09T09:31:19;12.40;92.40
3919;DHT22;1974;48.670;8.994;2023-04-09T09:33:46;12.50;94.80
3919;DHT22;1974;48.670;8.994;2023-04-09T09:36:15;13.50;93.90
3919;DHT22;1974;48.670;8.994;2023-04-09T09:38:57;13.80;93.10
3919;DHT22;1974;48.670;8.994;2023-04-09T09:41:28;13.60;94.20
3919;DHT22;1974;48.670;8.994;2023-04-09T09:43:55;13.50;93.00
3919;DHT22;1974;48.670;8.994;2023-04-09T09:46:24;13.10;93.50
3919;DHT22;1974;48.670;8.994;2023-04-09T09:48:54;12.90;94.90
3919;DHT22;1974;48.670;8.994;2023-04-09T09:51:24;12.90;95.30
3919;DHT22;1974;48.670;8.994;2023-04-09T09:53:55;13.00;93.70
3919;DHT22;1974;48.670;8.994;2023-04-09T09:56:24;12.90;92.80
3919;DHT22;1974;48.670;8.994;2023-04-09T09:59:04;12.60;91.60
3919;DHT22;1974;48.670;8.994;2023-04-09T10:01:32;12.50;92.30
3919;DHT22;1974;48.670;8.994;2023-04-09T10:04:00;12.60;93.70
3919;DHT22;1974;48.670;8.994;2023-04-09T10:06:28;12.50;92.20
3919;DHT22;1974;48.670;8.994;2023-04-09T10:08:57;12.50;92.20
3919;DHT22;1974;48.670;8.994;2023-04-09T10:11:26;12.20;91.50
3919;DHT22;1974;48.670;8.994;2023-04-09T10:13:55;12.00;91.80
3919;DHT22;1974;48.670;8.994;2023-04-09T10:16:24;11.90;92.10
3919;DHT22;1974;48.670;8.994;2023-04-09T10:18:51;11.70;93.00
3919;DHT22;1974;48.670;8.994;2023-04-09T10:21:25;11.60;93.50
3919;DHT22;1974;48.670;8.994;2023-04-09T10:23:54;11.60;94.00
3919;DHT22;1974;48.670;8.994;2023-04-09T10:26:24;11.60;93.90
3919;DHT22;1974;48.670;8.994;2023-04-09T10:29:06;11.60;93.70
3919;DHT22;1974;48.670;8.994;2023-04-09T10:31:50;11.80;93.60
3919;DHT22;1974;48.670;8.994;2023-04-09T10:34:19;11.90;93.00
3919;DHT22;1974;48.670;8.994;2023-04-09T10:36:50;12.40;93.20
3919;DHT22;1974;48.670;8.994;2023-04-09T10:39:18;13.00;92.60
3919;DHT22;1974;48.670;8.994;2023-04-09T10:41:45;13.20;91.60
3919;DHT22;1974;48.670;8.994;2023-04-09T10:44:21;13.30;93.00
3919;DHT22;1974;48.670;8.994;2023-04-09T10:46:52;13.30;90.90
3919;DHT22;1974;48.670;8.994;2023-04-09T10:49:20;13.00;91.10
3919;DHT22;1974;48.670;8.994;2023-04-09T10:51:49;13.00;91.90
3919;DHT22;1974;48.670;8.994;2023-04-09T10:54:36;13.00;91.90
3919;DHT22;1974;48.670;8.994;2023-04-09T10:57:13;12.80;93.00
3919;DHT22;1974;48.670;8.994;2023-04-09T10:59:42;12.80;92.60
3919;DHT22;1974;48.670;8.994;2023-04-09T11:02:36;13.50;91.90
3919;DHT22;1974;48.670;8.994;2023-04-09T11:05:18;13.70;90.80
3919;DHT22;1974;48.670;8.994;2023-04-09T11:07:48;13.60;90.70
3919;DHT22;1974;48.670;8.994;2023-04-09T11:10:18;13.40;90.50
3919;DHT22;1974;48.670;8.994;2023-04-09T11:12:46;13.10;90.90
3919;DHT22;1974;48.670;8.994;2023-04-09T11:15:17;12.70;90.50
3919;DHT22;1974;48.670;8.994;2023-04-09T11:17:45;12.40;90.10
3919;DHT22;1974;48.670;8.994;2023-04-09T11:20:12;12.20;90.90
3919;DHT22;1974;48.670;8.994;2023-04-09T11:22:39;12.10;90.90
3919;DHT22;1974;48.670;8.994;2023-04-09T11:25:07;12.10;91.70
3919;DHT22;1974;48.670;8.994;2023-04-09T11:27:36;12.30;91.50
3919;DHT22;1974;48.670;8.994;2023-04-09T11:30:03;12.30;87.00
3919;DHT22;1974;48.670;8.994;2023-04-09T11:32:31;12.40;86.90
3919;DHT22;1974;48.670;8.994;2023-04-09T11:34:59;12.40;87.60
3919;DHT22;1974;48.670;8.994;2023-04-09T11:37:27;12.60;86.10
3919;DHT22;1974;48.670;8.994;2023-04-09T11:39:54;12.60;89.10
3919;DHT22;1974;48.670;8.994;2023-04-09T11:42:22;12.80;86.20
3919;DHT22;1974;48.670;8.994;2023-04-09T11:44:50;12.70;85.00
3919;DHT22;1974;48.670;8.994;2023-04-09T11:47:18;12.50;85.80
3919;DHT22;1974;48.670;8.994;2023-04-09T11:49:46;12.40;84.60
3919;DHT22;1974;48.670;8.994;2023-04-09T11:52:14;12.50;86.70
3919;DHT22;1974;48.670;8.994;2023-04-09T11:54:41;12.80;85.60
3919;DHT22;1974;48.670;8.994;2023-04-09T11:57:08;13.10;85.60
3919;DHT22;1974;48.670;8.994;2023-04-09T11:59:37;13.20;85.50
3919;DHT22;1974;48.670;8.994;2023-04-09T12:02:05;13.20;85.70
3919;DHT22;1974;48.670;8.994;2023-04-09T12:04:32;13.20;83.40
3919;DHT22;1974;48.670;8.994;2023-04-09T12:06:59;13.10;83.20
3919;DHT22;1974;48.670;8.994;2023-04-09T12:09:27;12.80;85.00
3919;DHT22;1974;48.670;8.994;2023-04-09T12:11:54;12.60;86.50
3919;DHT22;1974;48.670;8.994;2023-04-09T12:14:22;12.40;86.10
3919;DHT22;1974;48.670;8.994;2023-04-09T12:16:50;12.20;87.10
3919;DHT22;1974;48.670;8.994;2023-04-09T12:19:16;12.20;88.00
3919;DHT22;1974;48.670;8.994;2023-04-09T12:21:46;12.40;85.10
3919;DHT22;1974;48.670;8.994;2023-04-09T12:24:14;12.40;86.00
3919;DHT22;1974;48.670;8.994;2023-04-09T12:26:43;12.10;87.70
3919;DHT22;1974;48.670;8.994;2023-04-09T12:29:10;12.10;87.60
3919;DHT22;1974;48.670;8.994;2023-04-09T12:31:37;12.10;87.40
3919;DHT22;1974;48.670;8.994;2023-04-09T12:34:03;12.10;87.90
3919;DHT22;1974;48.670;8.994;2023-04-09T12:36:30;12.00;88.80
3919;DHT22;1974;48.670;8.994;2023-04-09T12:38:57;12.00;88.50
3919;DHT22;1974;48.670;8.994;2023-04-09T12:41:23;12.00;89.10
3919;DHT22;1974;48.670;8.994;2023-04-09T12:43:52;12.00;90.20
3919;DHT22;1974;48.670;8.994;2023-04-09T12:46:18;12.00;88.60
3919;DHT22;1974;48.670;8.994;2023-04-09T12:48:46;12.10;90.30
3919;DHT22;1974;48.670;8.994;2023-04-09T12:51:13;12.10;90.10
3919;DHT22;1974;48.670;8.994;2023-04-09T12:53:40;12.20;90.20
3919;DHT22;1974;48.670;8.994;2023-04-09T12:56:07;12.30;90.20
3919;DHT22;1974;48.670;8.994;2023-04-09T12:58:34;12.60;89.50
3919;DHT22;1974;48.670;8.994;2023-04-09T13:01:03;12.80;88.40
3919;DHT22;1974;48.670;8.994;2023-04-09T13:03:30;13.00;86.60
3919;DHT22;1974;48.670;8.994;2023-04-09T13:05:57;13.00;88.90
3919;DHT22;1974;48.670;8.994;2023-04-09T13:08:24;12.70;86.00
3919;DHT22;1974;48.670;8.994;2023-04-09T13:10:51;12.50;86.60
3919;DHT22;1974;48.670;8.994;2023-04-09T13:13:18;12.50;88.20
3919;DHT22;1974;48.670;8.994;2023-04-09T13:15:44;12.60;90.00
3919;DHT22;1974;48.670;8.994;2023-04-09T13:18:13;12.70;88.80
3919;DHT22;1974;48.670;8.994;2023-04-09T13:20:39;12.80;89.00
3919;DHT22;1974;48.670;8.994;2023-04-09T13:23:09;12.80;87.70
3919;DHT22;1974;48.670;8.994;2023-04-09T13:25:36;12.80;88.10
3919;DHT22;1974;48.670;8.994;2023-04-09T13:28:02;12.70;88.40
3919;DHT22;1974;48.670;8.994;2023-04-09T13:30:29;12.50;88.30
3919;DHT22;1974;48.670;8.994;2023-04-09T13:32:56;12.50;87.90
3919;DHT22;1974;48.670;8.994;2023-04-09T13:35:24;12.50;88.40
3919;DHT22;1974;48.670;8.994;2023-04-09T13:37:51;12.40;86.60
3919;DHT22;1974;48.670;8.994;2023-04-09T13:40:18;12.40;87.50
3919;DHT22;1974;48.670;8.994;2023-04-09T13:42:45;12.40;87.70
3919;DHT22;1974;48.670;8.994;2023-04-09T13:45:11;12.40;88.00
3919;DHT22;1974;48.670;8.994;2023-04-09T13:47:38;12.40;87.90
3919;DHT22;1974;48.670;8.994;2023-04-09T13:50:06;12.40;87.30
3919;DHT22;1974;48.670;8.994;2023-04-09T13:52:35;12.30;86.70
3919;DHT22;1974;48.670;8.994;2023-04-09T13:55:03;12.30;87.00
3919;DHT22;1974;48.670;8.994;2023-04-09T13:57:30;12.20;87.50
3919;DHT22;1974;48.670;8.994;2023-04-09T13:59:57;12.30;87.10
3919;DHT22;1974;48.670;8.994;2023-04-09T14:02:26;12.30;85.30
3919;DHT22;1974;48.670;8.994;2023-04-09T14:04:53;12.30;85.80
3919;DHT22;1974;48.670;8.994;2023-04-09T14:07:21;12.60;85.50
3919;DHT22;1974;48.670;8.994;2023-04-09T14:09:49;12.60;84.80
3919;DHT22;1974;48.670;8.994;2023-04-09T14:12:16;12.60;85.60
3919;DHT22;1974;48.670;8.994;2023-04-09T14:14:42;12.50;84.10
3919;DHT22;1974;48.670;8.994;2023-04-09T14:17:09;12.40;85.20
3919;DHT22;1974;48.670;8.994;2023-04-09T14:19:36;12.30;84.60
3919;DHT22;1974;48.670;8.994;2023-04-09T14:22:03;12.40;86.00
3919;DHT22;1974;48.670;8.994;2023-04-09T14:24:31;12.40;84.50
3919;DHT22;1974;48.670;8.994;2023-04-09T14:27:05;12.30;85.80
3919;DHT22;1974;48.670;8.994;2023-04-09T14:29:32;12.20;85.00
3919;DHT22;1974;48.670;8.994;2023-04-09T14:31:59;12.10;83.60
3919;DHT22;1974;48.670;8.994;2023-04-09T14:34:28;12.10;84.10
3919;DHT22;1974;48.670;8.994;2023-04-09T14:36:54;12.10;84.00
3919;DHT22;1974;48.670;8.994;2023-04-09T14:39:21;12.00;83.30
3919;DHT22;1974;48.670;8.994;2023-04-09T14:41:48;12.00;83.20
3919;DHT22;1974;48.670;8.994;2023-04-09T14:44:16;12.00;83.60
3919;DHT22;1974;48.670;8.994;2023-04-09T14:46:43;12.00;84.40
3919;DHT22;1974;48.670;8.994;2023-04-09T14:49:09;12.10;83.00
3919;DHT22;1974;48.670;8.994;2023-04-09T14:51:36;12.30;82.30
3919;DHT22;1974;48.670;8.994;2023-04-09T14:54:03;12.30;82.80
3919;DHT22;1974;48.670;8.994;2023-04-09T14:56:31;12.20;82.20
3919;DHT22;1974;48.670;8.994;2023-04-09T14:58:58;12.10;82.00
3919;DHT22;1974;48.670;8.994;2023-04-09T15:01:26;12.00;82.60
3919;DHT22;1974;48.670;8.994;2023-04-09T15:03:53;12.00;83.20
3919;DHT22;1974;48.670;8.994;2023-04-09T15:06:20;12.00;83.50
3919;DHT22;1974;48.670;8.994;2023-04-09T15:08:47;12.00;83.10
3919;DHT22;1974;48.670;8.994;2023-04-09T15:11:14;12.00;84.00
3919;DHT22;1974;48.670;8.994;2023-04-09T15:13:41;11.90;83.50
3919;DHT22;1974;48.670;8.994;2023-04-09T15:16:08;11.90;83.90
3919;DHT22;1974;48.670;8.994;2023-04-09T15:18:36;11.80;84.40
3919;DHT22;1974;48.670;8.994;2023-04-09T15:21:03;11.80;84.00
3919;DHT22;1974;48.670;8.994;2023-04-09T15:23:30;11.80;84.30
3919;DHT22;1974;48.670;8.994;2023-04-09T15:25:56;11.80;84.00
3919;DHT22;1974;48.670;8.994;2023-04-09T15:28:23;11.80;83.40
3919;DHT22;1974;48.670;8.994;2023-04-09T15:30:50;11.80;83.00
3919;DHT22;1974;48.670;8.994;2023-04-09T15:33:16;11.70;84.00
3919;DHT22;1974;48.670;8.994;2023-04-09T15:35:44;11.70;84.10
3919;DHT22;1974;48.670;8.994;2023-04-09T15:38:11;11.70;84.10
3919;DHT22;1974;48.670;8.994;2023-04-09T15:40:39;11.70;84.90
3919;DHT22;1974;48.670;8.994;2023-04-09T15:43:05;11.70;85.00
3919;DHT22;1974;48.670;8.994;2023-04-09T15:45:32;11.70;85.70
3919;DHT22;1974;48.670;8.994;2023-04-09T15:47:59;11.80;85.20
3919;DHT22;1974;48.670;8.994;2023-04-09T15:50:26;11.70;85.70
3919;DHT22;1974;48.670;8.994;2023-04-09T15:52:54;11.70;86.50
3919;DHT22;1974;48.670;8.994;2023-04-09T15:55:20;11.80;84.80
3919;DHT22;1974;48.670;8.994;2023-04-09T15:57:50;11.70;85.50
3919;DHT22;1974;48.670;8.994;2023-04-09T16:00:17;11.70;85.70
3919;DHT22;1974;48.670;8.994;2023-04-09T16:02:44;11.80;85.50
3919;DHT22;1974;48.670;8.994;2023-04-09T16:05:10;11.70;86.00
3919;DHT22;1974;48.670;8.994;2023-04-09T16:07:37;11.70;86.50
3919;DHT22;1974;48.670;8.994;2023-04-09T16:10:07;11.70;87.10
3919;DHT22;1974;48.670;8.994;2023-04-09T16:12:34;11.70;85.70